sensor_id;sensor_type;location;lat;lon;timestamp;pressure;altitude;pressure_sealevel;temperature;humidity
69784;BME280;57054;51.978;4.498;2022-12-24T00:02:15;100583.59;;;8.80;100.00
69784;BME280;57054;51.978;4.498;2022-12-24T00:04:40;100600.22;;;8.78;100.00
69784;BME280;57054;51.978;4.498;2022-12-24T00:07:05;100590.75;;;8.75;100.00
69784;BME280;57054;51.978;4.498;2022-12-24T00:09:31;100595.19;;;8.73;100.00
69784;BME280;57054;51.978;4.498;2022-12-24T00:11:56;100606.50;;;8.72;100.00
69784;BME280;57054;51.978;4.498;2022-12-24T00:14:21;100596.16;;;8.69;100.00
69784;BME280;57054;51.978;4.498;2022-12-24T00:16:46;100604.06;;;8.68;100.00
69784;BME280;57054;51.978;4.498;2022-12-24T00:19:12;100604.19;;;8.64;100.00
69784;BME280;57054;51.978;4.498;2022-12-24T00:21:37;100608.66;;;8.61;100.00
69784;BME280;57054;51.978;4.498;2022-12-24T00:24:02;100617.41;;;8.60;100.00
69784;BME280;57054;51.978;4.498;2022-12-24T00:26:29;100614.84;;;8.58;100.00
69784;BME280;57054;51.978;4.498;2022-12-24T00:28:55;100620.97;;;8.57;100.00
69784;BME280;57054;51.978;4.498;2022-12-24T00:31:20;100619.31;;;8.55;100.00
69784;BME280;57054;51.978;4.498;2022-12-24T00:33:46;100623.69;;;8.54;100.00
69784;BME280;57054;51.978;4.498;2022-12-24T00:36:11;100627.22;;;8.53;100.00
69784;BME280;57054;51.978;4.498;2022-12-24T00:38:37;100628.97;;;8.53;100.00
69784;BME280;57054;51.978;4.498;2022-12-24T00:41:03;100642.88;;;8.53;100.00
69784;BME280;57054;51.978;4.498;2022-12-24T00:43:29;100642.06;;;8.51;100.00
69784;BME280;57054;51.978;4.498;2022-12-24T00:45:55;100643.88;;;8.49;100.00
69784;BME280;57054;51.978;4.498;2022-12-24T00:48:20;100647.47;;;8.47;100.00
69784;BME280;57054;51.978;4.498;2022-12-24T00:50:47;100649.28;;;8.44;100.00
69784;BME280;57054;51.978;4.498;2022-12-24T00:53:12;100653.63;;;8.44;100.00
69784;BME280;57054;51.978;4.498;2022-12-24T00:55:37;100656.31;;;8.42;100.00
69784;BME280;57054;51.978;4.498;2022-12-24T00:58:02;100657.16;;;8.41;100.00
69784;BME280;57054;51.978;4.498;2022-12-24T01:00:28;100650.25;;;8.40;100.00
69784;BME280;57054;51.978;4.498;2022-12-24T01:02:53;100661.53;;;8.41;100.00
69784;BME280;57054;51.978;4.498;2022-12-24T01:05:18;100659.88;;;8.38;100.00
69784;BME280;57054;51.978;4.498;2022-12-24T01:07:45;100654.66;;;8.38;100.00
69784;BME280;57054;51.978;4.498;2022-12-24T01:10:11;100661.63;;;8.38;100.00
69784;BME280;57054;51.978;4.498;2022-12-24T01:12:37;100668.66;;;8.36;100.00
69784;BME280;57054;51.978;4.498;2022-12-24T01:15:03;100674.78;;;8.35;100.00
69784;BME280;57054;51.978;4.498;2022-12-24T01:17:30;100670.47;;;8.34;100.00
69784;BME280;57054;51.978;4.498;2022-12-24T01:19:55;100680.06;;;8.33;100.00
69784;BME280;57054;51.978;4.498;2022-12-24T01:22:20;100679.19;;;8.33;100.00
69784;BME280;57054;51.978;4.498;2022-12-24T01:24:45;100680.16;;;8.30;100.00
69784;BME280;57054;51.978;4.498;2022-12-24T01:27:11;100685.44;;;8.29;100.00
69784;BME280;57054;51.978;4.498;2022-12-24T01:29:36;100680.25;;;8.27;100.00
69784;BME280;57054;51.978;4.498;2022-12-24T01:32:01;100680.25;;;8.27;100.00
69784;BME280;57054;51.978;4.498;2022-12-24T01:34:27;100680.31;;;8.25;100.00
69784;BME280;57054;51.978;4.498;2022-12-24T01:36:52;100684.72;;;8.23;100.00
69784;BME280;57054;51.978;4.498;2022-12-24T01:39:17;100698.69;;;8.22;100.00
69784;BME280;57054;51.978;4.498;2022-12-24T01:41:43;100696.94;;;8.23;100.00
69784;BME280;57054;51.978;4.498;2022-12-24T01:44:31;100695.22;;;8.22;100.00
69784;BME280;57054;51.978;4.498;2022-12-24T01:47:05;100714.34;;;8.22;100.00
69784;BME280;57054;51.978;4.498;2022-12-24T01:49:32;100711.75;;;8.22;100.00
69784;BME280;57054;51.978;4.498;2022-12-24T01:51:59;100710.03;;;8.21;100.00
69784;BME280;57054;51.978;4.498;2022-12-24T01:57:07;100725.66;;;8.21;100.00
69784;BME280;57054;51.978;4.498;2022-12-24T01:59:33;100717.84;;;8.21;100.00
69784;BME280;57054;51.978;4.498;2022-12-24T02:02:00;100724.78;;;8.22;100.00
69784;BME280;57054;51.978;4.498;2022-12-24T02:04:43;100733.50;;;8.21;100.00
69784;BME280;57054;51.978;4.498;2022-12-24T02:07:10;100727.44;;;8.21;100.00
69784;BME280;57054;51.978;4.498;2022-12-24T02:09:36;100741.28;;;8.23;100.00
69784;BME280;57054;51.978;4.498;2022-12-24T02:12:02;100739.56;;;8.22;100.00
69784;BME280;57054;51.978;4.498;2022-12-24T02:14:29;100745.66;;;8.22;100.00
69784;BME280;57054;51.978;4.498;2022-12-24T02:17:01;100742.16;;;8.22;100.00
69784;BME280;57054;51.978;4.498;2022-12-24T02:25:03;100750.78;;;8.24;100.00
69784;BME280;57054;51.978;4.498;2022-12-24T02:35:18;100749.88;;;8.26;100.00
69784;BME280;57054;51.978;4.498;2022-12-24T02:37:42;100755.88;;;8.29;100.00
69784;BME280;57054;51.978;4.498;2022-12-24T02:42:38;100754.13;;;8.29;100.00
69784;BME280;57054;51.978;4.498;2022-12-24T02:45:05;100754.91;;;8.31;100.00
69784;BME280;57054;51.978;4.498;2022-12-24T02:47:31;100751.47;;;8.31;100.00
69784;BME280;57054;51.978;4.498;2022-12-24T02:49:58;100754.03;;;8.32;100.00
69784;BME280;57054;51.978;4.498;2022-12-24T02:52:40;100758.41;;;8.32;100.00
69784;BME280;57054;51.978;4.498;2022-12-24T02:55:08;100761.84;;;8.32;100.00
69784;BME280;57054;51.978;4.498;2022-12-24T03:00:02;100774.84;;;8.34;100.00
69784;BME280;57054;51.978;4.498;2022-12-24T03:02:44;100775.69;;;8.34;100.00
69784;BME280;57054;51.978;4.498;2022-12-24T03:08:01;100778.25;;;8.36;100.00
69784;BME280;57054;51.978;4.498;2022-12-24T03:10:44;100777.38;;;8.37;100.00
69784;BME280;57054;51.978;4.498;2022-12-24T03:13:15;100787.75;;;8.38;100.00
69784;BME280;57054;51.978;4.498;2022-12-24T03:15:41;100792.91;;;8.40;100.00
69784;BME280;57054;51.978;4.498;2022-12-24T03:18:08;100792.06;;;8.39;100.00
69784;BME280;57054;51.978;4.498;2022-12-24T03:20:36;100796.41;;;8.40;100.00
69784;BME280;57054;51.978;4.498;2022-12-24T03:23:02;100801.56;;;8.42;100.00
69784;BME280;57054;51.978;4.498;2022-12-24T03:25:27;100799.84;;;8.42;100.00
69784;BME280;57054;51.978;4.498;2022-12-24T03:27:53;100804.13;;;8.43;100.00
69784;BME280;57054;51.978;4.498;2022-12-24T03:30:20;100799.75;;;8.44;100.00
69784;BME280;57054;51.978;4.498;2022-12-24T03:32:45;100794.53;;;8.44;100.00
69784;BME280;57054;51.978;4.498;2022-12-24T03:35:11;100797.16;;;8.44;100.00
69784;BME280;57054;51.978;4.498;2022-12-24T03:37:36;100798.81;;;8.47;100.00
69784;BME280;57054;51.978;4.498;2022-12-24T03:40:02;100788.38;;;8.47;100.00
69784;BME280;57054;51.978;4.498;2022-12-24T03:42:27;100796.19;;;8.48;100.00
69784;BME280;57054;51.978;4.498;2022-12-24T03:44:53;100797.03;;;8.49;100.00
69784;BME280;57054;51.978;4.498;2022-12-24T03:47:18;100786.56;;;8.49;100.00
69784;BME280;57054;51.978;4.498;2022-12-24T03:49:43;100790.97;;;8.48;100.00
69784;BME280;57054;51.978;4.498;2022-12-24T03:52:08;100790.97;;;8.48;100.00
69784;BME280;57054;51.978;4.498;2022-12-24T03:54:33;100795.25;;;8.49;100.00
69784;BME280;57054;51.978;4.498;2022-12-24T03:56:59;100799.63;;;8.49;100.00
69784;BME280;57054;51.978;4.498;2022-12-24T03:59:24;100802.19;;;8.50;100.00
69784;BME280;57054;51.978;4.498;2022-12-24T04:01:49;100798.66;;;8.51;100.00
69784;BME280;57054;51.978;4.498;2022-12-24T04:04:15;100805.66;;;8.51;100.00
69784;BME280;57054;51.978;4.498;2022-12-24T04:06:40;100800.38;;;8.52;100.00
69784;BME280;57054;51.978;4.498;2022-12-24T04:09:05;100797.78;;;8.52;100.00
69784;BME280;57054;51.978;4.498;2022-12-24T04:11:31;100807.31;;;8.53;100.00
69784;BME280;57054;51.978;4.498;2022-12-24T04:13:56;100811.56;;;8.56;100.00
69784;BME280;57054;51.978;4.498;2022-12-24T04:16:21;100816.84;;;8.54;100.00
69784;BME280;57054;51.978;4.498;2022-12-24T04:18:47;100815.94;;;8.55;100.00
69784;BME280;57054;51.978;4.498;2022-12-24T04:21:12;100818.56;;;8.55;100.00
69784;BME280;57054;51.978;4.498;2022-12-24T04:23:38;100825.53;;;8.55;100.00
69784;BME280;57054;51.978;4.498;2022-12-24T04:26:04;100824.63;;;8.56;100.00
69784;BME280;57054;51.978;4.498;2022-12-24T04:28:30;100824.59;;;8.57;100.00
69784;BME280;57054;51.978;4.498;2022-12-24T04:30:56;100822.81;;;8.58;100.00
69784;BME280;57054;51.978;4.498;2022-12-24T04:33:22;100820.16;;;8.59;100.00
69784;BME280;57054;51.978;4.498;2022-12-24T04:35:47;100831.44;;;8.60;100.00
69784;BME280;57054;51.978;4.498;2022-12-24T04:38:12;100828.78;;;8.61;100.00
69784;BME280;57054;51.978;4.498;2022-12-24T04:40:37;100839.19;;;8.63;100.00
69784;BME280;57054;51.978;4.498;2022-12-24T04:43:03;100845.22;;;8.65;100.00
69784;BME280;57054;51.978;4.498;2022-12-24T04:45:28;100840.00;;;8.65;100.00
69784;BME280;57054;51.978;4.498;2022-12-24T04:47:53;100840.84;;;8.65;100.00
69784;BME280;57054;51.978;4.498;2022-12-24T04:50:18;100852.16;;;8.66;100.00
69784;BME280;57054;51.978;4.498;2022-12-24T04:52:44;100853.84;;;8.67;100.00
69784;BME280;57054;51.978;4.498;2022-12-24T04:55:09;100851.22;;;8.67;100.00
69784;BME280;57054;51.978;4.498;2022-12-24T04:57:34;100849.47;;;8.68;100.00
69784;BME280;57054;51.978;4.498;2022-12-24T05:00:02;100850.34;;;8.68;100.00
69784;BME280;57054;51.978;4.498;2022-12-24T05:02:28;100842.50;;;8.68;100.00
69784;BME280;57054;51.978;4.498;2022-12-24T05:04:53;100853.81;;;8.69;100.00
69784;BME280;57054;51.978;4.498;2022-12-24T05:07:18;100848.56;;;8.69;100.00
69784;BME280;57054;51.978;4.498;2022-12-24T05:09:43;100855.53;;;8.70;100.00
69784;BME280;57054;51.978;4.498;2022-12-24T05:12:08;100868.56;;;8.70;100.00
69784;BME280;57054;51.978;4.498;2022-12-24T05:14:34;100866.81;;;8.70;100.00
69784;BME280;57054;51.978;4.498;2022-12-24T05:16:59;100868.56;;;8.70;100.00
69784;BME280;57054;51.978;4.498;2022-12-24T05:19:24;100860.66;;;8.71;100.00
69784;BME280;57054;51.978;4.498;2022-12-24T05:21:50;100860.66;;;8.71;100.00
69784;BME280;57054;51.978;4.498;2022-12-24T05:24:35;100862.38;;;8.72;100.00
69784;BME280;57054;51.978;4.498;2022-12-24T05:27:19;100855.41;;;8.73;100.00
69784;BME280;57054;51.978;4.498;2022-12-24T05:29:44;100858.00;;;8.73;100.00
69784;BME280;57054;51.978;4.498;2022-12-24T05:32:09;100854.50;;;8.74;100.00
69784;BME280;57054;51.978;4.498;2022-12-24T05:34:35;100850.19;;;8.73;100.00
69784;BME280;57054;51.978;4.498;2022-12-24T05:37:00;100851.91;;;8.74;100.00
69784;BME280;57054;51.978;4.498;2022-12-24T05:39:25;100857.06;;;8.75;100.00
69784;BME280;57054;51.978;4.498;2022-12-24T05:41:50;100858.81;;;8.75;100.00
69784;BME280;57054;51.978;4.498;2022-12-24T05:44:16;100867.53;;;8.75;100.00
69784;BME280;57054;51.978;4.498;2022-12-24T05:46:41;100873.59;;;8.76;100.00
69784;BME280;57054;51.978;4.498;2022-12-24T05:49:07;100877.97;;;8.75;100.00
69784;BME280;57054;51.978;4.498;2022-12-24T05:51:32;100878.81;;;8.76;100.00
69784;BME280;57054;51.978;4.498;2022-12-24T05:53:57;100877.91;;;8.77;100.00
69784;BME280;57054;51.978;4.498;2022-12-24T05:56:23;100880.56;;;8.75;100.00
69784;BME280;57054;51.978;4.498;2022-12-24T05:58:48;100880.56;;;8.75;100.00
69784;BME280;57054;51.978;4.498;2022-12-24T06:01:14;100892.75;;;8.75;100.00
69784;BME280;57054;51.978;4.498;2022-12-24T06:03:39;100888.44;;;8.74;100.00
69784;BME280;57054;51.978;4.498;2022-12-24T06:06:09;100893.69;;;8.74;100.00
69784;BME280;57054;51.978;4.498;2022-12-24T06:08:35;100895.44;;;8.73;100.00
69784;BME280;57054;51.978;4.498;2022-12-24T06:11:01;100905.00;;;8.73;100.00
69784;BME280;57054;51.978;4.498;2022-12-24T06:13:27;100908.53;;;8.72;100.00
69784;BME280;57054;51.978;4.498;2022-12-24T06:15:53;100912.00;;;8.72;100.00
69784;BME280;57054;51.978;4.498;2022-12-24T06:18:18;100920.72;;;8.71;100.00
69784;BME280;57054;51.978;4.498;2022-12-24T06:20:44;100914.66;;;8.71;100.00
69784;BME280;57054;51.978;4.498;2022-12-24T06:23:09;100919.91;;;8.69;100.00
69784;BME280;57054;51.978;4.498;2022-12-24T06:25:34;100918.22;;;8.68;100.00
69784;BME280;57054;51.978;4.498;2022-12-24T06:27:59;100922.56;;;8.68;100.00
69784;BME280;57054;51.978;4.498;2022-12-24T06:30:24;100917.44;;;8.66;100.00
69784;BME280;57054;51.978;4.498;2022-12-24T06:32:50;100915.69;;;8.65;100.00
69784;BME280;57054;51.978;4.498;2022-12-24T06:35:15;100914.84;;;8.64;100.00
69784;BME280;57054;51.978;4.498;2022-12-24T06:37:40;100922.69;;;8.64;100.00
69784;BME280;57054;51.978;4.498;2022-12-24T06:40:06;100918.34;;;8.63;100.00
69784;BME280;57054;51.978;4.498;2022-12-24T06:42:31;100918.41;;;8.62;100.00
69784;BME280;57054;51.978;4.498;2022-12-24T06:44:56;100913.19;;;8.62;100.00
69784;BME280;57054;51.978;4.498;2022-12-24T06:47:21;100921.88;;;8.62;100.00
69784;BME280;57054;51.978;4.498;2022-12-24T06:49:47;100921.09;;;8.60;100.00
69784;BME280;57054;51.978;4.498;2022-12-24T06:52:13;100922.78;;;8.61;100.00
69784;BME280;57054;51.978;4.498;2022-12-24T06:54:38;100928.91;;;8.60;100.00
69784;BME280;57054;51.978;4.498;2022-12-24T06:57:03;100931.56;;;8.59;100.00
69784;BME280;57054;51.978;4.498;2022-12-24T06:59:30;100932.47;;;8.58;100.00
69784;BME280;57054;51.978;4.498;2022-12-24T07:01:56;100949.09;;;8.55;100.00
69784;BME280;57054;51.978;4.498;2022-12-24T07:04:21;100945.66;;;8.53;100.00
69784;BME280;57054;51.978;4.498;2022-12-24T07:06:46;100949.16;;;8.52;100.00
69784;BME280;57054;51.978;4.498;2022-12-24T07:09:12;100948.31;;;8.52;100.00
69784;BME280;57054;51.978;4.498;2022-12-24T07:11:37;100941.38;;;8.51;100.00
69784;BME280;57054;51.978;4.498;2022-12-24T07:14:02;100947.44;;;8.51;100.00
69784;BME280;57054;51.978;4.498;2022-12-24T07:16:27;100949.22;;;8.51;100.00
69784;BME280;57054;51.978;4.498;2022-12-24T07:18:53;100951.84;;;8.49;100.00
69784;BME280;57054;51.978;4.498;2022-12-24T07:21:18;100950.16;;;8.48;100.00
69784;BME280;57054;51.978;4.498;2022-12-24T07:23:43;100956.28;;;8.47;100.00
69784;BME280;57054;51.978;4.498;2022-12-24T07:26:09;100961.50;;;8.47;100.00
69784;BME280;57054;51.978;4.498;2022-12-24T07:28:34;100963.31;;;8.45;100.00
69784;BME280;57054;51.978;4.498;2022-12-24T07:30:59;100972.94;;;8.43;100.00
69784;BME280;57054;51.978;4.498;2022-12-24T07:33:25;100971.22;;;8.42;100.00
69784;BME280;57054;51.978;4.498;2022-12-24T07:35:57;100976.44;;;8.42;100.00
69784;BME280;57054;51.978;4.498;2022-12-24T07:38:22;100987.75;;;8.42;100.00
69784;BME280;57054;51.978;4.498;2022-12-24T07:40:48;100990.34;;;8.42;100.00
69784;BME280;57054;51.978;4.498;2022-12-24T07:43:13;100997.31;;;8.42;100.00
69784;BME280;57054;51.978;4.498;2022-12-24T07:45:38;101008.63;;;8.42;100.00
69784;BME280;57054;51.978;4.498;2022-12-24T07:48:04;101012.09;;;8.43;100.00
69784;BME280;57054;51.978;4.498;2022-12-24T07:50:29;101006.88;;;8.43;100.00
69784;BME280;57054;51.978;4.498;2022-12-24T07:52:54;101006.88;;;8.43;100.00
69784;BME280;57054;51.978;4.498;2022-12-24T07:55:20;101019.00;;;8.44;100.00
69784;BME280;57054;51.978;4.498;2022-12-24T07:57:45;101019.00;;;8.44;100.00
69784;BME280;57054;51.978;4.498;2022-12-24T08:00:10;101034.66;;;8.44;100.00
69784;BME280;57054;51.978;4.498;2022-12-24T08:02:36;101035.53;;;8.44;100.00
69784;BME280;57054;51.978;4.498;2022-12-24T08:05:01;101040.75;;;8.44;100.00
69784;BME280;57054;51.978;4.498;2022-12-24T08:07:27;101045.09;;;8.44;100.00
69784;BME280;57054;51.978;4.498;2022-12-24T08:09:52;101036.38;;;8.45;100.00
69784;BME280;57054;51.978;4.498;2022-12-24T08:12:17;101046.81;;;8.45;100.00
69784;BME280;57054;51.978;4.498;2022-12-24T08:14:42;101045.94;;;8.46;100.00
69784;BME280;57054;51.978;4.498;2022-12-24T08:17:08;101055.47;;;8.47;100.00
69784;BME280;57054;51.978;4.498;2022-12-24T08:19:33;101050.25;;;8.47;100.00
69784;BME280;57054;51.978;4.498;2022-12-24T08:21:58;101058.06;;;8.47;100.00
69784;BME280;57054;51.978;4.498;2022-12-24T08:24:23;101062.41;;;8.48;100.00
69784;BME280;57054;51.978;4.498;2022-12-24T08:26:49;101078.06;;;8.48;100.00
69784;BME280;57054;51.978;4.498;2022-12-24T08:29:14;101076.31;;;8.49;100.00
69784;BME280;57054;51.978;4.498;2022-12-24T08:31:40;101083.19;;;8.51;100.00
69784;BME280;57054;51.978;4.498;2022-12-24T08:34:06;101082.34;;;8.51;100.00
69784;BME280;57054;51.978;4.498;2022-12-24T08:36:32;101082.34;;;8.51;100.00
69784;BME280;57054;51.978;4.498;2022-12-24T08:38:57;101094.50;;;8.52;100.00
69784;BME280;57054;51.978;4.498;2022-12-24T08:41:22;101088.41;;;8.51;100.00
69784;BME280;57054;51.978;4.498;2022-12-24T08:43:48;101084.91;;;8.52;100.00
69784;BME280;57054;51.978;4.498;2022-12-24T08:46:13;101092.72;;;8.52;100.00
69784;BME280;57054;51.978;4.498;2022-12-24T08:48:38;101101.41;;;8.53;100.00
69784;BME280;57054;51.978;4.498;2022-12-24T08:51:07;101109.22;;;8.54;100.00
69784;BME280;57054;51.978;4.498;2022-12-24T08:53:32;101108.31;;;8.55;100.00
69784;BME280;57054;51.978;4.498;2022-12-24T08:56:04;101114.38;;;8.56;100.00
69784;BME280;57054;51.978;4.498;2022-12-24T08:58:30;101111.78;;;8.56;100.00
69784;BME280;57054;51.978;4.498;2022-12-24T09:00:56;101112.63;;;8.56;100.00
69784;BME280;57054;51.978;4.498;2022-12-24T09:03:21;101121.25;;;8.58;100.00
69784;BME280;57054;51.978;4.498;2022-12-24T09:05:46;101123.03;;;8.58;100.00
69784;BME280;57054;51.978;4.498;2022-12-24T09:08:12;101125.59;;;8.59;100.00
69784;BME280;57054;51.978;4.498;2022-12-24T09:10:37;101129.94;;;8.60;100.00
69784;BME280;57054;51.978;4.498;2022-12-24T09:13:02;101127.38;;;8.59;100.00
69784;BME280;57054;51.978;4.498;2022-12-24T09:15:27;101133.41;;;8.61;100.00
69784;BME280;57054;51.978;4.498;2022-12-24T09:17:53;101134.28;;;8.60;100.00
69784;BME280;57054;51.978;4.498;2022-12-24T09:20:18;101137.78;;;8.60;100.00
69784;BME280;57054;51.978;4.498;2022-12-24T09:22:43;101149.03;;;8.62;100.00
69784;BME280;57054;51.978;4.498;2022-12-24T09:25:08;101151.66;;;8.61;100.00
69784;BME280;57054;51.978;4.498;2022-12-24T09:27:34;101166.41;;;8.62;100.00
69784;BME280;57054;51.978;4.498;2022-12-24T09:30:00;101164.69;;;8.62;100.00
69784;BME280;57054;51.978;4.498;2022-12-24T09:32:25;101158.56;;;8.63;100.00
69784;BME280;57054;51.978;4.498;2022-12-24T09:34:50;101161.16;;;8.63;100.00
69784;BME280;57054;51.978;4.498;2022-12-24T09:37:16;101167.22;;;8.64;100.00
69784;BME280;57054;51.978;4.498;2022-12-24T09:39:41;101161.13;;;8.65;100.00
69784;BME280;57054;51.978;4.498;2022-12-24T09:42:11;101166.31;;;8.67;100.00
69784;BME280;57054;51.978;4.498;2022-12-24T09:44:44;101170.69;;;8.66;100.00
69784;BME280;57054;51.978;4.498;2022-12-24T09:49:55;101177.56;;;8.69;100.00
69784;BME280;57054;51.978;4.498;2022-12-24T09:52:26;101176.69;;;8.70;100.00
69784;BME280;57054;51.978;4.498;2022-12-24T09:54:56;101181.84;;;8.71;100.00
69784;BME280;57054;51.978;4.498;2022-12-24T09:57:25;101183.59;;;8.71;100.00
69784;BME280;57054;51.978;4.498;2022-12-24T09:59:52;101190.53;;;8.72;100.00
69784;BME280;57054;51.978;4.498;2022-12-24T10:02:18;101188.78;;;8.72;100.00
69784;BME280;57054;51.978;4.498;2022-12-24T10:04:44;101187.94;;;8.72;100.00
69784;BME280;57054;51.978;4.498;2022-12-24T10:12:15;101194.81;;;8.74;100.00
69784;BME280;57054;51.978;4.498;2022-12-24T10:19:52;101189.59;;;8.74;100.00
69784;BME280;57054;51.978;4.498;2022-12-24T10:25:02;101195.63;;;8.76;100.00
69784;BME280;57054;51.978;4.498;2022-12-24T10:27:31;101191.28;;;8.77;100.00
69784;BME280;57054;51.978;4.498;2022-12-24T10:30:00;101201.72;;;8.77;100.00
69784;BME280;57054;51.978;4.498;2022-12-24T10:32:30;101213.03;;;8.77;100.00
69784;BME280;57054;51.978;4.498;2022-12-24T10:37:26;101209.50;;;8.78;100.00
69784;BME280;57054;51.978;4.498;2022-12-24T10:39:56;101209.50;;;8.78;100.00
69784;BME280;57054;51.978;4.498;2022-12-24T10:42:22;101217.31;;;8.78;100.00
69784;BME280;57054;51.978;4.498;2022-12-24T10:44:49;101213.88;;;8.78;100.00
69784;BME280;57054;51.978;4.498;2022-12-24T10:47:16;101213.88;;;8.78;100.00
69784;BME280;57054;51.978;4.498;2022-12-24T10:49:43;101226.09;;;8.77;100.00
69784;BME280;57054;51.978;4.498;2022-12-24T10:52:11;101223.47;;;8.77;100.00
69784;BME280;57054;51.978;4.498;2022-12-24T10:54:39;101225.16;;;8.78;100.00
69784;BME280;57054;51.978;4.498;2022-12-24T10:57:24;101223.44;;;8.79;100.00
69784;BME280;57054;51.978;4.498;2022-12-24T10:59:53;101207.75;;;8.79;100.00
69784;BME280;57054;51.978;4.498;2022-12-24T11:04:54;101216.41;;;8.81;100.00
69784;BME280;57054;51.978;4.498;2022-12-24T11:07:20;101231.16;;;8.82;100.00
69784;BME280;57054;51.978;4.498;2022-12-24T11:09:53;101226.00;;;8.80;100.00
69784;BME280;57054;51.978;4.498;2022-12-24T11:12:20;101229.44;;;8.82;100.00
69784;BME280;57054;51.978;4.498;2022-12-24T11:14:47;101219.91;;;8.80;100.00
69784;BME280;57054;51.978;4.498;2022-12-24T11:17:18;101232.94;;;8.81;100.00
69784;BME280;57054;51.978;4.498;2022-12-24T11:19:46;101225.13;;;8.80;100.00
69784;BME280;57054;51.978;4.498;2022-12-24T11:24:43;101226.88;;;8.79;100.00
69784;BME280;57054;51.978;4.498;2022-12-24T11:32:39;101234.75;;;8.78;100.00
69784;BME280;57054;51.978;4.498;2022-12-24T11:35:05;101233.88;;;8.79;100.00
69784;BME280;57054;51.978;4.498;2022-12-24T11:37:31;101237.34;;;8.79;100.00
69784;BME280;57054;51.978;4.498;2022-12-24T11:39:57;101242.56;;;8.79;100.00
69784;BME280;57054;51.978;4.498;2022-12-24T11:42:25;101243.41;;;8.80;100.00
69784;BME280;57054;51.978;4.498;2022-12-24T11:44:52;101244.31;;;8.79;100.00
69784;BME280;57054;51.978;4.498;2022-12-24T11:47:22;101242.56;;;8.79;100.00
69784;BME280;57054;51.978;4.498;2022-12-24T11:50:02;101239.94;;;8.79;100.00
69784;BME280;57054;51.978;4.498;2022-12-24T11:52:41;101250.41;;;8.79;100.00
69784;BME280;57054;51.978;4.498;2022-12-24T11:55:13;101250.41;;;8.79;100.00
69784;BME280;57054;51.978;4.498;2022-12-24T12:00:37;101247.78;;;8.79;100.00
69784;BME280;57054;51.978;4.498;2022-12-24T12:03:03;101255.59;;;8.81;100.00
69784;BME280;57054;51.978;4.498;2022-12-24T12:05:35;101246.91;;;8.80;100.00
69784;BME280;57054;51.978;4.498;2022-12-24T12:08:17;101261.69;;;8.80;100.00
69784;BME280;57054;51.978;4.498;2022-12-24T12:10:44;101252.97;;;8.81;100.00
69784;BME280;57054;51.978;4.498;2022-12-24T12:13:13;101250.34;;;8.81;100.00
69784;BME280;57054;51.978;4.498;2022-12-24T12:15:47;101258.19;;;8.81;100.00
69784;BME280;57054;51.978;4.498;2022-12-24T12:20:42;101259.88;;;8.82;100.00
69784;BME280;57054;51.978;4.498;2022-12-24T12:23:16;101271.25;;;8.81;100.00
69784;BME280;57054;51.978;4.498;2022-12-24T12:25:46;101268.63;;;8.81;100.00
69784;BME280;57054;51.978;4.498;2022-12-24T12:28:20;101272.09;;;8.81;100.00
69784;BME280;57054;51.978;4.498;2022-12-24T12:30:47;101277.31;;;8.81;100.00
69784;BME280;57054;51.978;4.498;2022-12-24T12:33:19;101277.31;;;8.81;100.00
69784;BME280;57054;51.978;4.498;2022-12-24T12:35:48;101279.94;;;8.81;100.00
69784;BME280;57054;51.978;4.498;2022-12-24T12:40:47;101270.34;;;8.82;100.00
69784;BME280;57054;51.978;4.498;2022-12-24T12:45:52;101277.22;;;8.86;100.00
69784;BME280;57054;51.978;4.498;2022-12-24T12:53:47;101294.50;;;8.90;100.00
69784;BME280;57054;51.978;4.498;2022-12-24T12:58:49;101294.50;;;8.90;100.00
69784;BME280;57054;51.978;4.498;2022-12-24T13:06:25;101288.38;;;8.91;100.00
69784;BME280;57054;51.978;4.498;2022-12-24T13:21:41;101313.56;;;8.94;100.00
69784;BME280;57054;51.978;4.498;2022-12-24T13:26:39;101311.81;;;8.94;100.00
69784;BME280;57054;51.978;4.498;2022-12-24T13:31:48;101312.66;;;8.95;100.00
69784;BME280;57054;51.978;4.498;2022-12-24T13:34:35;101304.81;;;8.95;100.00
69784;BME280;57054;51.978;4.498;2022-12-24T13:37:00;101316.16;;;8.95;100.00
69784;BME280;57054;51.978;4.498;2022-12-24T13:39:26;101311.81;;;8.94;100.00
69784;BME280;57054;51.978;4.498;2022-12-24T13:41:51;101317.88;;;8.95;100.00
69784;BME280;57054;51.978;4.498;2022-12-24T13:44:18;101318.75;;;8.95;100.00
69784;BME280;57054;51.978;4.498;2022-12-24T13:51:47;101325.72;;;8.95;100.00
69784;BME280;57054;51.978;4.498;2022-12-24T13:54:14;101338.75;;;8.96;100.00
69784;BME280;57054;51.978;4.498;2022-12-24T13:56:42;101328.34;;;8.95;100.00
69784;BME280;57054;51.978;4.498;2022-12-24T13:59:09;101333.56;;;8.95;100.00
69784;BME280;57054;51.978;4.498;2022-12-24T14:01:36;101334.44;;;8.95;100.00
69784;BME280;57054;51.978;4.498;2022-12-24T14:04:03;101326.59;;;8.95;100.00
69784;BME280;57054;51.978;4.498;2022-12-24T14:06:34;101332.63;;;8.97;100.00
69784;BME280;57054;51.978;4.498;2022-12-24T14:09:19;101324.81;;;8.97;100.00
69784;BME280;57054;51.978;4.498;2022-12-24T14:14:30;101331.72;;;8.98;100.00
69784;BME280;57054;51.978;4.498;2022-12-24T14:16:57;101332.63;;;8.97;100.00
69784;BME280;57054;51.978;4.498;2022-12-24T14:19:31;101332.63;;;8.97;100.00
69784;BME280;57054;51.978;4.498;2022-12-24T14:22:48;101328.25;;;8.98;100.00
69784;BME280;57054;51.978;4.498;2022-12-24T14:24:49;101328.25;;;8.98;100.00
69784;BME280;57054;51.978;4.498;2022-12-24T14:27:16;101330.00;;;8.99;100.00
69784;BME280;57054;51.978;4.498;2022-12-24T14:30:26;101323.88;;;8.98;100.00
69784;BME280;57054;51.978;4.498;2022-12-24T14:32:35;101335.22;;;8.99;100.00